sensor_id;sensor_type;location;lat;lon;timestamp;P1;durP1;ratioP1;P2;durP2;ratioP2
16727;SDS011;8482;54.396;18.590;2023-07-20T00:01:58;3.35;;;1.70;;
16727;SDS011;8482;54.396;18.590;2023-07-20T00:04:24;4.30;;;1.98;;
16727;SDS011;8482;54.396;18.590;2023-07-20T00:06:50;4.63;;;1.80;;
16727;SDS011;8482;54.396;18.590;2023-07-20T00:09:16;2.47;;;1.50;;
16727;SDS011;8482;54.396;18.590;2023-07-20T00:11:47;4.45;;;1.88;;
16727;SDS011;8482;54.396;18.590;2023-07-20T00:14:18;3.03;;;1.70;;
16727;SDS011;8482;54.396;18.590;2023-07-20T00:16:45;3.05;;;1.60;;
16727;SDS011;8482;54.396;18.590;2023-07-20T00:19:24;3.72;;;1.70;;
16727;SDS011;8482;54.396;18.590;2023-07-20T00:21:52;4.10;;;1.55;;
16727;SDS011;8482;54.396;18.590;2023-07-20T00:24:19;5.28;;;2.33;;
16727;SDS011;8482;54.396;18.590;2023-07-20T00:26:46;3.90;;;2.40;;
16727;SDS011;8482;54.396;18.590;2023-07-20T00:29:12;3.92;;;1.70;;
16727;SDS011;8482;54.396;18.590;2023-07-20T00:31:37;3.47;;;1.40;;
16727;SDS011;8482;54.396;18.590;2023-07-20T00:34:04;3.35;;;1.50;;
16727;SDS011;8482;54.396;18.590;2023-07-20T00:36:30;3.35;;;1.63;;
16727;SDS011;8482;54.396;18.590;2023-07-20T00:38:55;3.30;;;1.60;;
16727;SDS011;8482;54.396;18.590;2023-07-20T00:41:21;2.25;;;1.40;;
16727;SDS011;8482;54.396;18.590;2023-07-20T00:43:47;4.13;;;1.70;;
16727;SDS011;8482;54.396;18.590;2023-07-20T00:46:13;3.38;;;1.40;;
16727;SDS011;8482;54.396;18.590;2023-07-20T00:48:40;2.03;;;1.45;;
16727;SDS011;8482;54.396;18.590;2023-07-20T00:51:07;4.20;;;1.52;;
16727;SDS011;8482;54.396;18.590;2023-07-20T00:53:34;4.32;;;1.90;;
16727;SDS011;8482;54.396;18.590;2023-07-20T00:56:00;2.75;;;1.50;;
16727;SDS011;8482;54.396;18.590;2023-07-20T00:58:26;6.45;;;2.10;;
16727;SDS011;8482;54.396;18.590;2023-07-20T01:00:53;3.42;;;1.50;;
16727;SDS011;8482;54.396;18.590;2023-07-20T01:03:19;3.97;;;1.45;;
16727;SDS011;8482;54.396;18.590;2023-07-20T01:05:51;2.25;;;1.33;;
16727;SDS011;8482;54.396;18.590;2023-07-20T01:08:35;3.35;;;1.50;;
16727;SDS011;8482;54.396;18.590;2023-07-20T01:11:33;3.25;;;1.40;;
16727;SDS011;8482;54.396;18.590;2023-07-20T01:14:05;4.90;;;1.95;;
16727;SDS011;8482;54.396;18.590;2023-07-20T01:16:32;3.13;;;1.52;;
16727;SDS011;8482;54.396;18.590;2023-07-20T01:18:59;3.75;;;1.40;;
16727;SDS011;8482;54.396;18.590;2023-07-20T01:21:26;2.25;;;1.40;;
16727;SDS011;8482;54.396;18.590;2023-07-20T01:24:26;3.75;;;1.70;;
16727;SDS011;8482;54.396;18.590;2023-07-20T01:27:28;3.22;;;1.40;;
16727;SDS011;8482;54.396;18.590;2023-07-20T01:33:17;3.45;;;1.70;;
16727;SDS011;8482;54.396;18.590;2023-07-20T01:35:46;3.00;;;1.50;;
16727;SDS011;8482;54.396;18.590;2023-07-20T01:38:19;2.47;;;1.58;;
16727;SDS011;8482;54.396;18.590;2023-07-20T01:40:46;3.38;;;1.48;;
16727;SDS011;8482;54.396;18.590;2023-07-20T01:43:13;2.72;;;1.60;;
16727;SDS011;8482;54.396;18.590;2023-07-20T01:45:39;2.42;;;1.50;;
16727;SDS011;8482;54.396;18.590;2023-07-20T01:48:05;3.08;;;1.42;;
16727;SDS011;8482;54.396;18.590;2023-07-20T01:50:31;2.78;;;1.42;;
16727;SDS011;8482;54.396;18.590;2023-07-20T01:52:57;4.15;;;1.55;;
16727;SDS011;8482;54.396;18.590;2023-07-20T01:55:23;2.78;;;1.30;;
16727;SDS011;8482;54.396;18.590;2023-07-20T01:57:49;2.58;;;1.20;;
16727;SDS011;8482;54.396;18.590;2023-07-20T02:00:15;2.90;;;1.52;;
16727;SDS011;8482;54.396;18.590;2023-07-20T02:02:43;4.97;;;1.60;;
16727;SDS011;8482;54.396;18.590;2023-07-20T02:05:09;4.55;;;1.55;;
16727;SDS011;8482;54.396;18.590;2023-07-20T02:07:35;3.83;;;1.27;;
16727;SDS011;8482;54.396;18.590;2023-07-20T02:10:01;4.43;;;1.40;;
16727;SDS011;8482;54.396;18.590;2023-07-20T02:12:27;2.58;;;1.52;;
16727;SDS011;8482;54.396;18.590;2023-07-20T02:14:53;3.47;;;1.40;;
16727;SDS011;8482;54.396;18.590;2023-07-20T02:17:18;1.90;;;1.25;;
16727;SDS011;8482;54.396;18.590;2023-07-20T02:19:44;3.85;;;1.60;;
16727;SDS011;8482;54.396;18.590;2023-07-20T02:22:10;4.18;;;1.48;;
16727;SDS011;8482;54.396;18.590;2023-07-20T02:24:36;2.35;;;1.23;;
16727;SDS011;8482;54.396;18.590;2023-07-20T02:27:02;3.47;;;1.67;;
16727;SDS011;8482;54.396;18.590;2023-07-20T02:29:28;3.05;;;1.30;;
16727;SDS011;8482;54.396;18.590;2023-07-20T02:31:54;2.83;;;1.50;;
16727;SDS011;8482;54.396;18.590;2023-07-20T02:34:19;3.05;;;1.33;;
16727;SDS011;8482;54.396;18.590;2023-07-20T02:36:45;2.38;;;1.40;;
16727;SDS011;8482;54.396;18.590;2023-07-20T02:39:11;3.47;;;1.60;;
16727;SDS011;8482;54.396;18.590;2023-07-20T02:41:37;2.92;;;1.38;;
16727;SDS011;8482;54.396;18.590;2023-07-20T02:44:03;4.72;;;1.55;;
16727;SDS011;8482;54.396;18.590;2023-07-20T02:46:29;2.13;;;1.35;;
16727;SDS011;8482;54.396;18.590;2023-07-20T02:48:55;5.10;;;1.48;;
16727;SDS011;8482;54.396;18.590;2023-07-20T02:51:21;4.43;;;1.73;;
16727;SDS011;8482;54.396;18.590;2023-07-20T02:53:47;4.60;;;1.60;;
16727;SDS011;8482;54.396;18.590;2023-07-20T02:56:12;3.05;;;1.38;;
16727;SDS011;8482;54.396;18.590;2023-07-20T02:58:40;4.43;;;1.67;;
16727;SDS011;8482;54.396;18.590;2023-07-20T03:01:10;4.57;;;2.67;;
16727;SDS011;8482;54.396;18.590;2023-07-20T03:03:37;5.85;;;1.55;;
16727;SDS011;8482;54.396;18.590;2023-07-20T03:06:03;3.03;;;1.70;;
16727;SDS011;8482;54.396;18.590;2023-07-20T03:08:30;4.40;;;2.25;;
16727;SDS011;8482;54.396;18.590;2023-07-20T03:10:56;2.80;;;1.70;;
16727;SDS011;8482;54.396;18.590;2023-07-20T03:13:22;2.67;;;1.38;;
16727;SDS011;8482;54.396;18.590;2023-07-20T03:15:49;2.95;;;1.40;;
16727;SDS011;8482;54.396;18.590;2023-07-20T03:18:14;6.65;;;1.55;;
16727;SDS011;8482;54.396;18.590;2023-07-20T03:20:40;2.65;;;1.40;;
16727;SDS011;8482;54.396;18.590;2023-07-20T03:23:06;2.20;;;1.30;;
16727;SDS011;8482;54.396;18.590;2023-07-20T03:25:32;3.20;;;1.55;;
16727;SDS011;8482;54.396;18.590;2023-07-20T03:27:58;2.97;;;1.55;;
16727;SDS011;8482;54.396;18.590;2023-07-20T03:30:24;5.15;;;1.70;;
16727;SDS011;8482;54.396;18.590;2023-07-20T03:32:50;3.88;;;1.58;;
16727;SDS011;8482;54.396;18.590;2023-07-20T03:35:16;5.40;;;1.50;;
16727;SDS011;8482;54.396;18.590;2023-07-20T03:37:42;3.30;;;1.30;;
16727;SDS011;8482;54.396;18.590;2023-07-20T03:40:08;2.33;;;1.30;;
16727;SDS011;8482;54.396;18.590;2023-07-20T03:42:35;2.10;;;1.40;;
16727;SDS011;8482;54.396;18.590;2023-07-20T03:45:01;3.47;;;1.40;;
16727;SDS011;8482;54.396;18.590;2023-07-20T03:47:28;3.10;;;1.60;;
16727;SDS011;8482;54.396;18.590;2023-07-20T03:49:53;5.28;;;1.88;;
16727;SDS011;8482;54.396;18.590;2023-07-20T03:52:19;2.53;;;1.50;;
16727;SDS011;8482;54.396;18.590;2023-07-20T03:54:45;2.88;;;1.40;;
16727;SDS011;8482;54.396;18.590;2023-07-20T03:57:11;2.15;;;1.13;;
16727;SDS011;8482;54.396;18.590;2023-07-20T03:59:37;2.03;;;1.10;;
16727;SDS011;8482;54.396;18.590;2023-07-20T04:02:04;3.17;;;1.73;;
16727;SDS011;8482;54.396;18.590;2023-07-20T04:04:30;2.78;;;1.30;;
16727;SDS011;8482;54.396;18.590;2023-07-20T04:06:56;2.75;;;1.60;;
16727;SDS011;8482;54.396;18.590;2023-07-20T04:09:22;2.58;;;1.40;;
16727;SDS011;8482;54.396;18.590;2023-07-20T04:11:48;1.80;;;1.30;;
16727;SDS011;8482;54.396;18.590;2023-07-20T04:14:14;3.20;;;1.80;;
16727;SDS011;8482;54.396;18.590;2023-07-20T04:16:40;3.97;;;1.77;;
16727;SDS011;8482;54.396;18.590;2023-07-20T04:19:05;1.85;;;1.20;;
16727;SDS011;8482;54.396;18.590;2023-07-20T04:21:31;3.08;;;1.45;;
16727;SDS011;8482;54.396;18.590;2023-07-20T04:23:57;4.75;;;1.55;;
16727;SDS011;8482;54.396;18.590;2023-07-20T04:26:23;4.38;;;1.52;;
16727;SDS011;8482;54.396;18.590;2023-07-20T04:28:49;4.72;;;1.60;;
16727;SDS011;8482;54.396;18.590;2023-07-20T04:31:16;1.88;;;1.50;;
16727;SDS011;8482;54.396;18.590;2023-07-20T04:33:41;3.35;;;1.40;;
16727;SDS011;8482;54.396;18.590;2023-07-20T04:36:07;2.53;;;1.30;;
16727;SDS011;8482;54.396;18.590;2023-07-20T04:38:34;2.25;;;1.23;;
16727;SDS011;8482;54.396;18.590;2023-07-20T04:41:00;3.55;;;1.80;;
16727;SDS011;8482;54.396;18.590;2023-07-20T04:43:26;3.03;;;1.38;;
16727;SDS011;8482;54.396;18.590;2023-07-20T04:45:54;3.38;;;1.60;;
16727;SDS011;8482;54.396;18.590;2023-07-20T04:48:20;3.40;;;1.85;;
16727;SDS011;8482;54.396;18.590;2023-07-20T04:50:46;3.28;;;1.60;;
16727;SDS011;8482;54.396;18.590;2023-07-20T04:53:12;3.78;;;1.40;;
16727;SDS011;8482;54.396;18.590;2023-07-20T04:55:38;1.75;;;1.20;;
16727;SDS011;8482;54.396;18.590;2023-07-20T04:58:05;2.72;;;1.20;;
16727;SDS011;8482;54.396;18.590;2023-07-20T05:00:33;1.95;;;1.20;;
16727;SDS011;8482;54.396;18.590;2023-07-20T05:02:59;2.75;;;1.30;;
16727;SDS011;8482;54.396;18.590;2023-07-20T05:05:25;2.35;;;1.25;;
16727;SDS011;8482;54.396;18.590;2023-07-20T05:07:51;2.67;;;1.50;;
16727;SDS011;8482;54.396;18.590;2023-07-20T05:10:17;3.60;;;1.58;;
16727;SDS011;8482;54.396;18.590;2023-07-20T05:12:43;4.07;;;1.52;;
16727;SDS011;8482;54.396;18.590;2023-07-20T05:15:09;3.05;;;1.35;;
16727;SDS011;8482;54.396;18.590;2023-07-20T05:17:35;2.78;;;1.70;;
16727;SDS011;8482;54.396;18.590;2023-07-20T05:20:01;5.35;;;1.58;;
16727;SDS011;8482;54.396;18.590;2023-07-20T05:22:29;2.83;;;1.45;;
16727;SDS011;8482;54.396;18.590;2023-07-20T05:24:55;4.25;;;1.55;;
16727;SDS011;8482;54.396;18.590;2023-07-20T05:27:21;2.17;;;1.30;;
16727;SDS011;8482;54.396;18.590;2023-07-20T05:29:47;5.07;;;1.90;;
16727;SDS011;8482;54.396;18.590;2023-07-20T05:32:13;5.07;;;1.63;;
16727;SDS011;8482;54.396;18.590;2023-07-20T05:34:39;2.38;;;1.60;;
16727;SDS011;8482;54.396;18.590;2023-07-20T05:37:05;4.03;;;1.45;;
16727;SDS011;8482;54.396;18.590;2023-07-20T05:39:34;2.20;;;1.40;;
16727;SDS011;8482;54.396;18.590;2023-07-20T05:42:00;3.03;;;1.60;;
16727;SDS011;8482;54.396;18.590;2023-07-20T05:44:26;3.50;;;1.67;;
16727;SDS011;8482;54.396;18.590;2023-07-20T05:46:52;2.63;;;1.50;;
16727;SDS011;8482;54.396;18.590;2023-07-20T05:49:17;1.63;;;1.35;;
16727;SDS011;8482;54.396;18.590;2023-07-20T05:51:43;3.28;;;1.50;;
16727;SDS011;8482;54.396;18.590;2023-07-20T05:54:09;4.90;;;1.58;;
16727;SDS011;8482;54.396;18.590;2023-07-20T05:56:35;3.50;;;1.63;;
16727;SDS011;8482;54.396;18.590;2023-07-20T05:59:01;2.15;;;1.35;;
16727;SDS011;8482;54.396;18.590;2023-07-20T06:01:27;3.30;;;1.65;;
16727;SDS011;8482;54.396;18.590;2023-07-20T06:03:53;2.50;;;1.63;;
16727;SDS011;8482;54.396;18.590;2023-07-20T06:06:19;4.55;;;1.88;;
16727;SDS011;8482;54.396;18.590;2023-07-20T06:08:45;2.60;;;1.38;;
16727;SDS011;8482;54.396;18.590;2023-07-20T06:11:11;2.80;;;1.40;;
16727;SDS011;8482;54.396;18.590;2023-07-20T06:13:37;4.40;;;1.77;;
16727;SDS011;8482;54.396;18.590;2023-07-20T06:16:03;2.97;;;1.48;;
16727;SDS011;8482;54.396;18.590;2023-07-20T06:18:29;3.72;;;1.80;;
16727;SDS011;8482;54.396;18.590;2023-07-20T06:20:55;2.33;;;1.52;;
16727;SDS011;8482;54.396;18.590;2023-07-20T06:23:22;4.03;;;1.60;;
16727;SDS011;8482;54.396;18.590;2023-07-20T06:25:48;2.70;;;1.75;;
16727;SDS011;8482;54.396;18.590;2023-07-20T06:28:14;4.60;;;1.42;;
16727;SDS011;8482;54.396;18.590;2023-07-20T06:30:39;3.38;;;1.45;;
16727;SDS011;8482;54.396;18.590;2023-07-20T06:33:05;4.05;;;1.42;;
16727;SDS011;8482;54.396;18.590;2023-07-20T06:35:33;2.88;;;1.48;;
16727;SDS011;8482;54.396;18.590;2023-07-20T06:38:01;6.00;;;1.65;;
16727;SDS011;8482;54.396;18.590;2023-07-20T06:40:28;2.35;;;1.45;;
16727;SDS011;8482;54.396;18.590;2023-07-20T06:42:55;2.72;;;1.35;;
16727;SDS011;8482;54.396;18.590;2023-07-20T06:45:22;3.22;;;1.30;;
16727;SDS011;8482;54.396;18.590;2023-07-20T06:47:48;3.58;;;1.40;;
16727;SDS011;8482;54.396;18.590;2023-07-20T06:50:14;3.40;;;1.40;;
16727;SDS011;8482;54.396;18.590;2023-07-20T06:52:39;1.98;;;1.10;;
16727;SDS011;8482;54.396;18.590;2023-07-20T06:55:06;2.10;;;1.10;;
16727;SDS011;8482;54.396;18.590;2023-07-20T06:57:33;2.50;;;1.20;;
16727;SDS011;8482;54.396;18.590;2023-07-20T06:59:58;2.45;;;1.20;;
16727;SDS011;8482;54.396;18.590;2023-07-20T07:02:24;1.95;;;1.10;;
16727;SDS011;8482;54.396;18.590;2023-07-20T07:04:50;1.58;;;1.10;;
16727;SDS011;8482;54.396;18.590;2023-07-20T07:07:16;2.67;;;1.33;;
16727;SDS011;8482;54.396;18.590;2023-07-20T07:09:42;1.35;;;1.00;;
16727;SDS011;8482;54.396;18.590;2023-07-20T07:12:08;2.35;;;1.15;;
16727;SDS011;8482;54.396;18.590;2023-07-20T07:14:34;2.25;;;1.05;;
16727;SDS011;8482;54.396;18.590;2023-07-20T07:17:00;1.67;;;1.20;;
16727;SDS011;8482;54.396;18.590;2023-07-20T07:19:26;3.05;;;1.10;;
16727;SDS011;8482;54.396;18.590;2023-07-20T07:21:52;1.25;;;1.10;;
16727;SDS011;8482;54.396;18.590;2023-07-20T07:24:18;3.13;;;1.20;;
16727;SDS011;8482;54.396;18.590;2023-07-20T07:26:44;1.63;;;1.00;;
16727;SDS011;8482;54.396;18.590;2023-07-20T07:29:10;1.95;;;1.20;;
16727;SDS011;8482;54.396;18.590;2023-07-20T07:31:36;1.58;;;1.02;;
16727;SDS011;8482;54.396;18.590;2023-07-20T07:34:03;2.03;;;1.25;;
16727;SDS011;8482;54.396;18.590;2023-07-20T07:36:30;1.60;;;1.10;;
16727;SDS011;8482;54.396;18.590;2023-07-20T07:38:57;2.55;;;1.27;;
16727;SDS011;8482;54.396;18.590;2023-07-20T07:41:23;2.60;;;1.15;;
16727;SDS011;8482;54.396;18.590;2023-07-20T07:43:48;1.33;;;1.00;;
16727;SDS011;8482;54.396;18.590;2023-07-20T07:46:14;1.73;;;1.15;;
16727;SDS011;8482;54.396;18.590;2023-07-20T07:48:40;1.23;;;1.10;;
16727;SDS011;8482;54.396;18.590;2023-07-20T07:51:07;2.63;;;1.00;;
16727;SDS011;8482;54.396;18.590;2023-07-20T07:53:33;2.80;;;1.63;;
16727;SDS011;8482;54.396;18.590;2023-07-20T07:56:01;1.95;;;1.05;;
16727;SDS011;8482;54.396;18.590;2023-07-20T07:58:28;2.25;;;1.20;;
16727;SDS011;8482;54.396;18.590;2023-07-20T08:00:54;2.58;;;1.23;;
16727;SDS011;8482;54.396;18.590;2023-07-20T08:03:20;1.75;;;1.00;;
16727;SDS011;8482;54.396;18.590;2023-07-20T08:05:46;1.58;;;0.88;;
16727;SDS011;8482;54.396;18.590;2023-07-20T08:08:12;1.08;;;0.70;;
16727;SDS011;8482;54.396;18.590;2023-07-20T08:10:38;0.70;;;0.70;;
16727;SDS011;8482;54.396;18.590;2023-07-20T08:13:03;0.93;;;0.80;;
16727;SDS011;8482;54.396;18.590;2023-07-20T08:15:29;1.50;;;0.80;;
16727;SDS011;8482;54.396;18.590;2023-07-20T08:17:55;1.25;;;0.80;;
16727;SDS011;8482;54.396;18.590;2023-07-20T08:20:21;2.33;;;1.30;;
16727;SDS011;8482;54.396;18.590;2023-07-20T08:22:51;1.83;;;1.30;;
16727;SDS011;8482;54.396;18.590;2023-07-20T08:25:20;1.25;;;0.93;;
16727;SDS011;8482;54.396;18.590;2023-07-20T08:27:46;2.70;;;1.13;;
16727;SDS011;8482;54.396;18.590;2023-07-20T08:30:12;3.13;;;1.20;;
16727;SDS011;8482;54.396;18.590;2023-07-20T08:32:38;1.70;;;1.05;;
16727;SDS011;8482;54.396;18.590;2023-07-20T08:35:04;1.88;;;0.90;;
16727;SDS011;8482;54.396;18.590;2023-07-20T08:37:31;1.80;;;1.02;;
16727;SDS011;8482;54.396;18.590;2023-07-20T08:39:57;3.33;;;1.23;;
16727;SDS011;8482;54.396;18.590;2023-07-20T08:42:23;2.15;;;0.95;;
16727;SDS011;8482;54.396;18.590;2023-07-20T08:44:49;2.08;;;1.23;;
16727;SDS011;8482;54.396;18.590;2023-07-20T08:47:18;0.98;;;0.88;;
16727;SDS011;8482;54.396;18.590;2023-07-20T08:49:47;1.00;;;0.90;;
16727;SDS011;8482;54.396;18.590;2023-07-20T08:52:14;1.17;;;0.88;;
16727;SDS011;8482;54.396;18.590;2023-07-20T08:54:41;0.95;;;0.82;;
16727;SDS011;8482;54.396;18.590;2023-07-20T08:57:07;1.33;;;1.10;;
16727;SDS011;8482;54.396;18.590;2023-07-20T08:59:39;2.17;;;1.10;;
16727;SDS011;8482;54.396;18.590;2023-07-20T09:02:06;1.15;;;0.88;;
16727;SDS011;8482;54.396;18.590;2023-07-20T09:04:39;1.42;;;0.90;;
16727;SDS011;8482;54.396;18.590;2023-07-20T09:07:05;1.38;;;0.95;;
16727;SDS011;8482;54.396;18.590;2023-07-20T09:09:31;0.90;;;0.88;;
16727;SDS011;8482;54.396;18.590;2023-07-20T09:11:57;1.75;;;1.13;;
16727;SDS011;8482;54.396;18.590;2023-07-20T09:14:22;2.60;;;1.02;;
16727;SDS011;8482;54.396;18.590;2023-07-20T09:16:55;2.70;;;1.20;;
16727;SDS011;8482;54.396;18.590;2023-07-20T09:19:21;1.15;;;0.77;;
16727;SDS011;8482;54.396;18.590;2023-07-20T09:21:48;2.05;;;1.05;;
16727;SDS011;8482;54.396;18.590;2023-07-20T09:24:19;3.55;;;1.23;;
16727;SDS011;8482;54.396;18.590;2023-07-20T09:26:47;3.00;;;1.38;;
16727;SDS011;8482;54.396;18.590;2023-07-20T09:29:17;1.20;;;0.90;;
16727;SDS011;8482;54.396;18.590;2023-07-20T09:31:57;0.90;;;0.70;;
16727;SDS011;8482;54.396;18.590;2023-07-20T09:34:31;2.25;;;1.00;;
16727;SDS011;8482;54.396;18.590;2023-07-20T09:36:58;1.00;;;0.80;;
16727;SDS011;8482;54.396;18.590;2023-07-20T09:39:24;1.52;;;0.70;;
16727;SDS011;8482;54.396;18.590;2023-07-20T09:41:51;0.80;;;0.80;;
16727;SDS011;8482;54.396;18.590;2023-07-20T09:44:17;0.82;;;0.60;;
16727;SDS011;8482;54.396;18.590;2023-07-20T09:46:46;1.52;;;0.77;;
16727;SDS011;8482;54.396;18.590;2023-07-20T09:49:14;1.30;;;0.80;;
16727;SDS011;8482;54.396;18.590;2023-07-20T09:51:42;1.98;;;0.95;;
16727;SDS011;8482;54.396;18.590;2023-07-20T09:54:11;1.80;;;0.73;;
16727;SDS011;8482;54.396;18.590;2023-07-20T09:56:38;2.05;;;0.80;;
16727;SDS011;8482;54.396;18.590;2023-07-20T09:59:05;0.80;;;0.75;;
16727;SDS011;8482;54.396;18.590;2023-07-20T10:01:32;1.05;;;0.80;;
16727;SDS011;8482;54.396;18.590;2023-07-20T10:04:00;1.25;;;0.80;;
16727;SDS011;8482;54.396;18.590;2023-07-20T10:06:29;1.15;;;0.80;;
16727;SDS011;8482;54.396;18.590;2023-07-20T10:09:00;1.13;;;0.82;;
16727;SDS011;8482;54.396;18.590;2023-07-20T10:11:32;0.95;;;0.77;;
16727;SDS011;8482;54.396;18.590;2023-07-20T10:14:04;1.20;;;0.75;;
16727;SDS011;8482;54.396;18.590;2023-07-20T10:16:36;0.95;;;0.63;;
16727;SDS011;8482;54.396;18.590;2023-07-20T10:22:18;1.25;;;0.90;;
16727;SDS011;8482;54.396;18.590;2023-07-20T10:24:51;0.70;;;0.70;;
16727;SDS011;8482;54.396;18.590;2023-07-20T10:27:20;0.70;;;0.70;;
16727;SDS011;8482;54.396;18.590;2023-07-20T10:29:46;0.90;;;0.73;;
16727;SDS011;8482;54.396;18.590;2023-07-20T10:32:13;1.55;;;0.80;;
16727;SDS011;8482;54.396;18.590;2023-07-20T10:34:40;1.88;;;0.80;;
16727;SDS011;8482;54.396;18.590;2023-07-20T10:37:05;1.00;;;0.90;;
16727;SDS011;8482;54.396;18.590;2023-07-20T10:39:32;1.17;;;0.90;;
16727;SDS011;8482;54.396;18.590;2023-07-20T10:44:38;1.27;;;0.80;;
16727;SDS011;8482;54.396;18.590;2023-07-20T10:47:11;1.05;;;0.70;;
16727;SDS011;8482;54.396;18.590;2023-07-20T10:52:25;2.40;;;1.02;;
16727;SDS011;8482;54.396;18.590;2023-07-20T10:54:51;2.03;;;1.10;;
16727;SDS011;8482;54.396;18.590;2023-07-20T10:57:24;1.48;;;0.77;;
16727;SDS011;8482;54.396;18.590;2023-07-20T11:02:51;1.08;;;0.80;;
16727;SDS011;8482;54.396;18.590;2023-07-20T11:05:42;1.00;;;0.90;;
16727;SDS011;8482;54.396;18.590;2023-07-20T11:08:11;1.15;;;0.77;;
16727;SDS011;8482;54.396;18.590;2023-07-20T11:14:01;2.63;;;1.08;;
16727;SDS011;8482;54.396;18.590;2023-07-20T11:16:40;1.02;;;0.82;;
16727;SDS011;8482;54.396;18.590;2023-07-20T11:19:15;2.03;;;0.90;;
16727;SDS011;8482;54.396;18.590;2023-07-20T11:21:58;2.05;;;1.00;;
16727;SDS011;8482;54.396;18.590;2023-07-20T11:24:24;2.00;;;1.15;;
16727;SDS011;8482;54.396;18.590;2023-07-20T11:26:51;2.10;;;1.10;;
16727;SDS011;8482;54.396;18.590;2023-07-20T11:29:19;2.13;;;0.90;;
16727;SDS011;8482;54.396;18.590;2023-07-20T11:31:48;1.63;;;0.82;;
16727;SDS011;8482;54.396;18.590;2023-07-20T11:34:15;1.35;;;0.80;;
16727;SDS011;8482;54.396;18.590;2023-07-20T11:36:47;0.80;;;0.60;;
16727;SDS011;8482;54.396;18.590;2023-07-20T11:39:18;1.42;;;0.75;;
16727;SDS011;8482;54.396;18.590;2023-07-20T11:41:50;1.58;;;0.90;;
16727;SDS011;8482;54.396;18.590;2023-07-20T11:44:18;1.95;;;0.75;;
16727;SDS011;8482;54.396;18.590;2023-07-20T11:46:51;1.38;;;0.80;;
16727;SDS011;8482;54.396;18.590;2023-07-20T11:49:29;1.55;;;0.82;;
16727;SDS011;8482;54.396;18.590;2023-07-20T11:51:59;1.58;;;0.80;;
16727;SDS011;8482;54.396;18.590;2023-07-20T11:54:26;2.80;;;1.10;;
16727;SDS011;8482;54.396;18.590;2023-07-20T11:56:53;2.13;;;1.13;;
16727;SDS011;8482;54.396;18.590;2023-07-20T11:59:22;2.70;;;1.00;;
16727;SDS011;8482;54.396;18.590;2023-07-20T12:01:48;2.53;;;0.82;;
16727;SDS011;8482;54.396;18.590;2023-07-20T12:04:14;1.40;;;0.90;;
16727;SDS011;8482;54.396;18.590;2023-07-20T12:06:40;1.38;;;0.90;;
16727;SDS011;8482;54.396;18.590;2023-07-20T12:09:06;1.42;;;0.82;;
16727;SDS011;8482;54.396;18.590;2023-07-20T12:11:42;1.35;;;0.80;;
16727;SDS011;8482;54.396;18.590;2023-07-20T12:14:10;0.90;;;0.70;;
16727;SDS011;8482;54.396;18.590;2023-07-20T12:16:36;3.22;;;1.10;;
16727;SDS011;8482;54.396;18.590;2023-07-20T12:19:04;1.15;;;0.80;;
16727;SDS011;8482;54.396;18.590;2023-07-20T12:21:33;0.70;;;0.70;;
16727;SDS011;8482;54.396;18.590;2023-07-20T12:24:05;1.23;;;0.90;;
16727;SDS011;8482;54.396;18.590;2023-07-20T12:26:34;0.70;;;0.63;;
16727;SDS011;8482;54.396;18.590;2023-07-20T12:29:00;0.65;;;0.60;;
16727;SDS011;8482;54.396;18.590;2023-07-20T12:31:28;1.33;;;0.80;;
16727;SDS011;8482;54.396;18.590;2023-07-20T12:33:56;0.60;;;0.60;;
16727;SDS011;8482;54.396;18.590;2023-07-20T12:36:23;1.77;;;0.77;;
16727;SDS011;8482;54.396;18.590;2023-07-20T12:38:50;1.83;;;0.75;;
16727;SDS011;8482;54.396;18.590;2023-07-20T12:41:16;1.00;;;0.70;;
16727;SDS011;8482;54.396;18.590;2023-07-20T12:43:42;0.50;;;0.50;;
16727;SDS011;8482;54.396;18.590;2023-07-20T12:46:10;1.05;;;0.50;;
16727;SDS011;8482;54.396;18.590;2023-07-20T12:48:38;1.45;;;0.70;;
16727;SDS011;8482;54.396;18.590;2023-07-20T12:51:07;1.10;;;0.75;;
16727;SDS011;8482;54.396;18.590;2023-07-20T12:53:34;1.58;;;0.80;;
16727;SDS011;8482;54.396;18.590;2023-07-20T12:56:00;2.08;;;0.80;;
16727;SDS011;8482;54.396;18.590;2023-07-20T12:58:26;0.95;;;0.60;;
16727;SDS011;8482;54.396;18.590;2023-07-20T13:00:52;1.13;;;0.80;;
16727;SDS011;8482;54.396;18.590;2023-07-20T13:03:18;1.05;;;0.90;;
16727;SDS011;8482;54.396;18.590;2023-07-20T13:05:45;0.80;;;0.80;;
16727;SDS011;8482;54.396;18.590;2023-07-20T13:08:12;0.95;;;0.70;;
16727;SDS011;8482;54.396;18.590;2023-07-20T13:10:38;0.95;;;0.65;;
16727;SDS011;8482;54.396;18.590;2023-07-20T13:13:05;0.60;;;0.60;;
16727;SDS011;8482;54.396;18.590;2023-07-20T13:15:32;0.60;;;0.60;;
16727;SDS011;8482;54.396;18.590;2023-07-20T13:18:06;3.65;;;1.00;;
16727;SDS011;8482;54.396;18.590;2023-07-20T13:20:32;1.02;;;0.60;;
16727;SDS011;8482;54.396;18.590;2023-07-20T13:22:58;1.58;;;0.80;;
16727;SDS011;8482;54.396;18.590;2023-07-20T13:25:24;2.38;;;0.70;;
16727;SDS011;8482;54.396;18.590;2023-07-20T13:27:50;1.95;;;1.00;;
16727;SDS011;8482;54.396;18.590;2023-07-20T13:30:16;2.30;;;1.00;;
16727;SDS011;8482;54.396;18.590;2023-07-20T13:32:45;2.03;;;0.73;;
16727;SDS011;8482;54.396;18.590;2023-07-20T13:35:14;0.57;;;0.57;;
16727;SDS011;8482;54.396;18.590;2023-07-20T13:37:41;0.65;;;0.50;;
16727;SDS011;8482;54.396;18.590;2023-07-20T13:40:07;2.15;;;1.33;;
16727;SDS011;8482;54.396;18.590;2023-07-20T13:42:38;1.35;;;0.77;;
16727;SDS011;8482;54.396;18.590;2023-07-20T13:45:05;1.38;;;1.00;;
16727;SDS011;8482;54.396;18.590;2023-07-20T13:47:32;0.90;;;0.70;;
16727;SDS011;8482;54.396;18.590;2023-07-20T13:49:58;1.40;;;0.80;;
16727;SDS011;8482;54.396;18.590;2023-07-20T13:52:24;0.77;;;0.70;;
16727;SDS011;8482;54.396;18.590;2023-07-20T13:54:49;1.02;;;0.70;;
16727;SDS011;8482;54.396;18.590;2023-07-20T13:57:15;0.80;;;0.63;;
16727;SDS011;8482;54.396;18.590;2023-07-20T13:59:42;3.95;;;0.90;;
16727;SDS011;8482;54.396;18.590;2023-07-20T14:02:08;1.13;;;0.82;;
16727;SDS011;8482;54.396;18.590;2023-07-20T14:04:34;0.55;;;0.55;;
16727;SDS011;8482;54.396;18.590;2023-07-20T14:07:00;1.27;;;0.70;;
16727;SDS011;8482;54.396;18.590;2023-07-20T14:09:26;0.88;;;0.60;;
16727;SDS011;8482;54.396;18.590;2023-07-20T14:11:52;1.45;;;0.70;;
16727;SDS011;8482;54.396;18.590;2023-07-20T14:14:18;0.75;;;0.57;;
16727;SDS011;8482;54.396;18.590;2023-07-20T14:16:44;0.50;;;0.50;;
16727;SDS011;8482;54.396;18.590;2023-07-20T14:19:09;1.30;;;0.60;;
16727;SDS011;8482;54.396;18.590;2023-07-20T14:21:35;0.47;;;0.40;;
16727;SDS011;8482;54.396;18.590;2023-07-20T14:24:01;0.60;;;0.60;;
16727;SDS011;8482;54.396;18.590;2023-07-20T14:26:27;0.75;;;0.55;;
16727;SDS011;8482;54.396;18.590;2023-07-20T14:28:53;0.65;;;0.60;;
16727;SDS011;8482;54.396;18.590;2023-07-20T14:31:19;1.30;;;0.70;;
16727;SDS011;8482;54.396;18.590;2023-07-20T14:33:45;0.50;;;0.50;;
16727;SDS011;8482;54.396;18.590;2023-07-20T14:36:11;0.60;;;0.60;;
16727;SDS011;8482;54.396;18.590;2023-07-20T14:38:37;0.65;;;0.50;;
16727;SDS011;8482;54.396;18.590;2023-07-20T14:41:03;0.85;;;0.60;;
16727;SDS011;8482;54.396;18.590;2023-07-20T14:43:30;1.65;;;0.57;;
16727;SDS011;8482;54.396;18.590;2023-07-20T14:45:57;0.82;;;0.70;;
16727;SDS011;8482;54.396;18.590;2023-07-20T14:48:22;1.23;;;0.70;;
16727;SDS011;8482;54.396;18.590;2023-07-20T14:50:48;1.23;;;0.90;;
16727;SDS011;8482;54.396;18.590;2023-07-20T14:53:14;1.58;;;0.90;;
16727;SDS011;8482;54.396;18.590;2023-07-20T14:55:41;1.13;;;0.70;;
16727;SDS011;8482;54.396;18.590;2023-07-20T14:58:08;1.55;;;0.80;;
16727;SDS011;8482;54.396;18.590;2023-07-20T15:00:34;1.20;;;0.70;;
16727;SDS011;8482;54.396;18.590;2023-07-20T15:03:00;0.88;;;0.55;;
16727;SDS011;8482;54.396;18.590;2023-07-20T15:05:26;0.73;;;0.60;;
16727;SDS011;8482;54.396;18.590;2023-07-20T15:07:52;0.70;;;0.70;;